Time;durP1;ratioP1;P1;durP2;ratioP2;P2;SDS_P1;SDS_P2;PMS_P1;PMS_P2;Temp;Humidity;BMP_temperature;BMP_pressure;BME280_temperature;BME280_humidity;BME280_pressure;Samples;Min_cycle;Max_cycle;Signal;HPM_P1;HPM_P2
2021/03/14 00:02:21;;;;;;;1.70;1.00;;;6.40;99.90;;;;;;5082557;28;20257;-57
2021/03/14 00:04:47;;;;;;;1.20;0.73;;;6.40;99.90;;;;;;5073649;28;20179;-59
2021/03/14 00:07:13;;;;;;;1.50;0.70;;;6.50;99.90;;;;;;5074027;28;20237;-57
2021/03/14 00:09:39;;;;;;;3.97;0.80;;;6.50;99.90;;;;;;5078251;28;20201;-59
2021/03/14 00:12:08;;;;;;;1.80;0.90;;;6.60;99.90;;;;;;5086016;28;20534;-57
2021/03/14 00:14:33;;;;;;;1.23;0.83;;;6.60;99.90;;;;;;5074430;28;20185;-59
2021/03/14 00:16:59;;;;;;;2.10;0.80;;;6.60;99.90;;;;;;5074794;28;20202;-59
2021/03/14 00:19:24;;;;;;;0.70;0.70;;;6.50;99.90;;;;;;5084146;28;20258;-58
2021/03/14 00:21:50;;;;;;;1.37;0.83;;;6.50;99.90;;;;;;5080858;28;20339;-56
2021/03/14 00:24:16;;;;;;;1.67;0.73;;;6.60;99.90;;;;;;5074359;28;20247;-59
2021/03/14 00:26:42;;;;;;;0.80;0.77;;;6.70;99.90;;;;;;5081742;28;20299;-56
2021/03/14 00:29:08;;;;;;;2.17;1.10;;;6.80;99.90;;;;;;5072451;28;20710;-58
2021/03/14 00:31:33;;;;;;;1.03;0.60;;;6.80;99.90;;;;;;5075144;28;20190;-59
2021/03/14 00:33:59;;;;;;;1.20;0.80;;;6.80;99.90;;;;;;5073931;28;20568;-59
2021/03/14 00:36:25;;;;;;;0.93;0.70;;;6.80;99.90;;;;;;5079781;28;20291;-56
2021/03/14 00:38:50;;;;;;;1.27;0.80;;;6.80;99.90;;;;;;5094731;28;20620;-59
2021/03/14 00:41:16;;;;;;;1.53;0.87;;;6.70;99.90;;;;;;5088507;28;20254;-56
2021/03/14 00:43:41;;;;;;;1.33;0.83;;;6.70;99.90;;;;;;5074426;28;20178;-56
2021/03/14 00:46:07;;;;;;;0.80;0.73;;;6.70;99.90;;;;;;5075466;28;20612;-56
2021/03/14 00:48:32;;;;;;;1.07;0.93;;;6.70;99.90;;;;;;5093765;28;20592;-54
2021/03/14 00:50:58;;;;;;;2.60;0.70;;;6.70;99.90;;;;;;5092073;28;20181;-53
2021/03/14 00:53:24;;;;;;;1.47;0.53;;;6.80;99.90;;;;;;5073951;28;20499;-59
2021/03/14 00:55:50;;;;;;;1.30;0.80;;;6.80;99.90;;;;;;5073405;28;20232;-57
2021/03/14 00:58:16;;;;;;;1.93;0.97;;;6.80;99.90;;;;;;5093544;28;20269;-59
2021/03/14 01:00:41;;;;;;;1.23;0.70;;;6.70;99.90;;;;;;5093657;28;20715;-53
2021/03/14 01:03:07;;;;;;;11.57;4.60;;;6.70;99.90;;;;;;5075869;28;20178;-57
2021/03/14 01:05:33;;;;;;;7.23;3.57;;;6.80;99.90;;;;;;5073632;28;20245;-55
2021/03/14 01:07:58;;;;;;;34.83;13.23;;;6.90;99.90;;;;;;5076111;28;20189;-54
2021/03/14 01:10:24;;;;;;;32.10;12.37;;;6.90;99.90;;;;;;5074025;28;20565;-59
2021/03/14 01:12:50;;;;;;;2.60;1.43;;;7.00;99.90;;;;;;5074646;28;20510;-59
2021/03/14 01:15:16;;;;;;;19.63;8.13;;;7.10;99.90;;;;;;5076769;28;20203;-60
2021/03/14 01:17:41;;;;;;;2.00;1.10;;;7.20;99.90;;;;;;5090516;28;20280;-57
2021/03/14 01:20:10;;;;;;;18.00;7.77;;;7.20;99.90;;;;;;5097944;28;20196;-56
2021/03/14 01:22:36;;;;;;;17.60;7.60;;;7.30;99.90;;;;;;5097104;28;20648;-58
2021/03/14 01:25:03;;;;;;;6.10;2.80;;;7.40;99.90;;;;;;5096062;28;20186;-57
2021/03/14 01:27:29;;;;;;;1.10;0.90;;;7.50;99.90;;;;;;5087890;28;20174;-57
2021/03/14 01:29:55;;;;;;;0.70;0.70;;;7.40;99.90;;;;;;5077464;28;20246;-60
2021/03/14 01:32:20;;;;;;;1.43;1.00;;;7.40;99.90;;;;;;5076900;28;20200;-60
2021/03/14 01:34:48;;;;;;;3.20;0.90;;;7.40;99.90;;;;;;5077757;28;20174;-53
2021/03/14 01:37:18;;;;;;;0.83;0.70;;;7.40;99.90;;;;;;5083576;28;20664;-56
2021/03/14 01:39:47;;;;;;;1.70;0.87;;;7.30;99.90;;;;;;5097645;28;20161;-59
2021/03/14 01:42:13;;;;;;;1.07;0.77;;;7.20;99.90;;;;;;5090570;28;20693;-58
2021/03/14 01:44:42;;;;;;;1.60;0.97;;;7.20;99.90;;;;;;5077345;28;20515;-59
2021/03/14 01:47:10;;;;;;;0.70;0.70;;;7.20;99.90;;;;;;5082291;28;20242;-59
2021/03/14 01:49:36;;;;;;;1.03;0.70;;;7.20;99.90;;;;;;5097205;28;20181;-58
2021/03/14 01:52:03;;;;;;;1.73;1.00;;;7.30;99.90;;;;;;5091949;28;20194;-57
2021/03/14 01:54:29;;;;;;;2.20;0.80;;;7.40;99.90;;;;;;5076714;28;20179;-57
2021/03/14 01:56:55;;;;;;;1.47;1.17;;;7.40;99.90;;;;;;5078738;28;20241;-57
2021/03/14 01:59:21;;;;;;;2.47;1.20;;;7.50;99.90;;;;;;5097777;28;20232;-53
2021/03/14 02:01:47;;;;;;;1.00;0.90;;;7.60;99.90;;;;;;5096409;28;20173;-59
2021/03/14 02:04:12;;;;;;;2.00;0.93;;;7.70;99.90;;;;;;5076567;28;20170;-58
2021/03/14 02:06:38;;;;;;;0.83;0.83;;;7.70;99.90;;;;;;5076093;28;20225;-59
2021/03/14 02:09:04;;;;;;;1.90;1.03;;;7.70;99.90;;;;;;5095220;28;20260;-58
2021/03/14 02:11:34;;;;;;;1.40;0.93;;;7.70;99.90;;;;;;5096994;28;20310;-57
2021/03/14 02:14:02;;;;;;;1.63;0.87;;;7.60;99.90;;;;;;5078447;28;20228;-58
2021/03/14 02:16:42;;;;;;;1.53;1.00;;;7.50;99.90;;;;;;5076463;28;20233;-57
2021/03/14 02:19:13;;;;;;;1.40;1.00;;;7.40;99.90;;;;;;5092117;28;20631;-57
2021/03/14 02:21:39;;;;;;;2.67;0.90;;;7.30;99.90;;;;;;5076356;28;20182;-59
2021/03/14 02:24:13;;;;;;;1.57;0.97;;;7.20;99.90;;;;;;5093767;28;20223;-58
2021/03/14 02:26:53;;;;;;;0.97;0.67;;;7.30;99.90;;;;;;5096366;28;20197;-56
2021/03/14 02:29:21;;;;;;;1.60;1.00;;;7.40;99.90;;;;;;5078250;28;20557;-58
2021/03/14 02:31:50;;;;;;;0.80;0.80;;;7.40;99.90;;;;;;5076125;28;20163;-55
2021/03/14 02:34:30;;;;;;;1.90;0.90;;;7.30;99.90;;;;;;5089555;28;20178;-59
2021/03/14 02:36:57;;;;;;;2.90;1.20;;;7.20;99.90;;;;;;5096221;28;20669;-59
2021/03/14 02:39:24;;;;;;;1.63;0.80;;;7.10;99.90;;;;;;5078140;28;20619;-60
2021/03/14 02:41:53;;;;;;;1.07;0.80;;;7.20;99.90;;;;;;5075887;28;20173;-54
2021/03/14 02:44:23;;;;;;;1.53;0.80;;;7.10;99.90;;;;;;5092951;28;20323;-54
2021/03/14 02:46:50;;;;;;;2.30;0.90;;;7.10;99.90;;;;;;5096136;28;20595;-55
2021/03/14 02:49:18;;;;;;;0.87;0.63;;;7.00;99.90;;;;;;5079758;28;20650;-58
2021/03/14 02:51:44;;;;;;;0.70;0.70;;;7.00;99.90;;;;;;5074309;28;20181;-58
2021/03/14 02:54:11;;;;;;;1.10;0.90;;;6.90;99.90;;;;;;5090182;28;20254;-57
2021/03/14 02:56:37;;;;;;;2.47;0.80;;;6.80;99.90;;;;;;5095850;28;20201;-59
2021/03/14 02:59:03;;;;;;;1.47;0.80;;;6.80;99.90;;;;;;5082084;28;20183;-53
2021/03/14 03:01:31;;;;;;;0.80;0.80;;;6.70;99.90;;;;;;5075463;28;20283;-53
2021/03/14 03:03:59;;;;;;;1.60;0.83;;;6.50;99.90;;;;;;5088350;28;20193;-57
2021/03/14 03:06:25;;;;;;;1.10;0.73;;;6.50;99.90;;;;;;5095677;28;20189;-59
2021/03/14 03:08:51;;;;;;;2.00;0.77;;;6.40;99.90;;;;;;5085129;28;20179;-57
2021/03/14 03:11:18;;;;;;;1.87;1.00;;;6.30;99.90;;;;;;5075028;28;20186;-57
2021/03/14 03:13:44;;;;;;;1.13;0.83;;;6.20;99.90;;;;;;5083734;28;20255;-59
2021/03/14 03:16:15;;;;;;;1.77;1.20;;;6.30;99.90;;;;;;5095103;28;20232;-54
2021/03/14 03:18:41;;;;;;;1.47;0.93;;;6.30;99.90;;;;;;5094393;28;20185;-56
2021/03/14 03:21:09;;;;;;;2.60;1.27;;;6.20;99.90;;;;;;5094645;28;20530;-55
2021/03/14 03:23:35;;;;;;;1.33;1.10;;;6.10;99.90;;;;;;5095303;28;20638;-56
2021/03/14 03:26:01;;;;;;;1.17;1.07;;;6.00;99.90;;;;;;5095290;28;20634;-59
2021/03/14 03:28:27;;;;;;;1.20;1.10;;;6.00;99.90;;;;;;5095160;28;20506;-58
2021/03/14 03:30:53;;;;;;;1.57;1.30;;;5.90;99.90;;;;;;5094765;28;20162;-61
2021/03/14 03:33:19;;;;;;;1.53;1.30;;;5.80;99.90;;;;;;5093108;28;20533;-56
2021/03/14 03:35:44;;;;;;;2.87;1.20;;;5.60;99.90;;;;;;5095176;28;20200;-53
2021/03/14 03:38:10;;;;;;;1.23;1.13;;;5.60;99.90;;;;;;5078302;28;20182;-52
2021/03/14 03:40:36;;;;;;;2.30;1.27;;;5.60;99.90;;;;;;5074920;28;20182;-55
2021/03/14 03:43:18;;;;;;;1.40;1.30;;;5.60;99.90;;;;;;5089159;28;20721;-59
2021/03/14 03:45:49;;;;;;;1.10;1.10;;;5.60;99.90;;;;;;5094993;28;20192;-59
2021/03/14 03:48:21;;;;;;;1.10;1.00;;;5.70;99.90;;;;;;5094944;28;20174;-57
2021/03/14 03:50:52;;;;;;;1.60;1.50;;;5.90;99.90;;;;;;5093911;28;20648;-53
2021/03/14 03:53:19;;;;;;;1.33;1.30;;;5.90;99.90;;;;;;5095407;28;20166;-56
2021/03/14 03:55:45;;;;;;;1.50;1.40;;;6.00;99.90;;;;;;5095324;28;20280;-56
2021/03/14 03:58:11;;;;;;;1.20;1.20;;;6.00;99.90;;;;;;5078402;28;20650;-58
2021/03/14 04:00:39;;;;;;;1.40;1.30;;;6.00;99.90;;;;;;5074616;28;20177;-59
2021/03/14 04:03:05;;;;;;;1.37;1.27;;;5.90;99.90;;;;;;5086700;28;20697;-58
2021/03/14 04:05:31;;;;;;;1.53;1.43;;;5.80;99.90;;;;;;5094684;28;20182;-56
2021/03/14 04:07:57;;;;;;;1.67;1.57;;;5.60;99.90;;;;;;5095104;28;20266;-57
2021/03/14 04:10:24;;;;;;;3.47;2.67;;;5.50;99.90;;;;;;5094542;28;20638;-56
2021/03/14 04:12:51;;;;;;;1.43;1.37;;;5.40;99.90;;;;;;5093095;28;20182;-55
2021/03/14 04:15:20;;;;;;;2.20;1.37;;;5.50;99.90;;;;;;5094552;28;20194;-59
2021/03/14 04:17:46;;;;;;;1.30;1.20;;;5.60;99.90;;;;;;5079524;28;20244;-59
2021/03/14 04:20:21;;;;;;;1.40;1.30;;;5.70;99.90;;;;;;5074460;28;20178;-59
2021/03/14 04:22:52;;;;;;;1.67;1.23;;;5.80;99.90;;;;;;5088455;28;20181;-55
2021/03/14 04:25:18;;;;;;;2.30;1.30;;;5.90;99.90;;;;;;5094705;28;20217;-54
2021/03/14 04:27:46;;;;;;;1.33;1.10;;;6.00;99.90;;;;;;5080191;28;20245;-55
2021/03/14 04:30:13;;;;;;;1.43;1.33;;;6.00;99.90;;;;;;5073096;28;20196;-55
2021/03/14 04:32:39;;;;;;;1.43;1.33;;;6.00;99.90;;;;;;5086553;28;20185;-54
2021/03/14 04:35:07;;;;;;;1.50;1.40;;;7.20;99.90;;;;;;5094445;28;20202;-58
2021/03/14 04:37:36;;;;;;;0.93;0.93;;;5.90;99.90;;;;;;5082877;28;20226;-57
2021/03/14 04:40:03;;;;;;;1.37;1.20;;;5.80;99.90;;;;;;5074599;28;20170;-52
2021/03/14 04:42:31;;;;;;;1.40;1.33;;;5.70;99.90;;;;;;5083552;28;20185;-54
2021/03/14 04:44:57;;;;;;;1.30;1.20;;;5.70;99.90;;;;;;5094088;28;20596;-56
2021/03/14 04:47:22;;;;;;;1.17;1.10;;;5.70;99.90;;;;;;5093643;28;20182;-56
2021/03/14 04:49:48;;;;;;;1.27;1.20;;;5.70;99.90;;;;;;5096151;28;20232;-56
2021/03/14 04:52:18;;;;;;;1.60;1.50;;;5.80;99.90;;;;;;5084200;28;20230;-59
2021/03/14 04:54:46;;;;;;;1.07;1.07;;;5.80;99.90;;;;;;5078579;28;20182;-58
2021/03/14 04:57:12;;;;;;;1.10;1.10;;;5.80;99.90;;;;;;5090431;28;20193;-56
2021/03/14 04:59:38;;;;;;;1.53;1.33;;;5.80;99.90;;;;;;5097981;28;20169;-58
2021/03/14 05:02:05;;;;;;;1.40;1.27;;;5.80;99.90;;;;;;5086760;28;20166;-59
2021/03/14 05:04:32;;;;;;;1.37;1.30;;;5.90;99.90;;;;;;5083342;28;20177;-54
2021/03/14 05:07:00;;;;;;;1.67;1.57;;;5.90;99.90;;;;;;5087575;28;20257;-59
2021/03/14 05:09:27;;;;;;;2.47;1.50;;;5.90;99.90;;;;;;5077279;28;20217;-55
2021/03/14 05:11:53;;;;;;;1.53;1.43;;;5.90;99.90;;;;;;5085858;28;20582;-58
2021/03/14 05:14:19;;;;;;;1.30;1.20;;;5.90;99.90;;;;;;5097724;28;20252;-54
2021/03/14 05:16:45;;;;;;;1.20;1.10;;;5.90;99.90;;;;;;5096205;28;20237;-58
2021/03/14 05:19:12;;;;;;;1.60;1.50;;;5.80;99.90;;;;;;5098136;28;20245;-58
2021/03/14 05:21:41;;;;;;;1.30;1.20;;;5.80;99.90;;;;;;5083625;28;20549;-56
2021/03/14 05:24:10;;;;;;;1.40;1.30;;;5.80;99.90;;;;;;5077155;28;20262;-53
2021/03/14 05:26:36;;;;;;;2.53;1.90;;;5.80;99.90;;;;;;5077269;28;20194;-59
2021/03/14 05:29:02;;;;;;;2.43;1.40;;;5.70;99.90;;;;;;5077444;28;20211;-59
2021/03/14 05:31:33;;;;;;;1.70;1.60;;;5.70;99.90;;;;;;5080001;28;20367;-58
2021/03/14 05:34:00;;;;;;;1.73;1.63;;;5.70;99.90;;;;;;5077724;28;20178;-53
2021/03/14 05:36:27;;;;;;;1.53;1.43;;;5.70;99.90;;;;;;5076962;28;20266;-56
2021/03/14 05:38:54;;;;;;;2.13;1.60;;;5.70;99.90;;;;;;5077311;28;20177;-54
2021/03/14 05:41:20;;;;;;;1.63;1.53;;;5.80;99.90;;;;;;5092957;28;20169;-59
2021/03/14 05:43:47;;;;;;;2.20;1.47;;;5.70;99.90;;;;;;5097115;28;20188;-59
2021/03/14 05:46:13;;;;;;;2.20;1.97;;;5.60;99.90;;;;;;5096315;28;20237;-59
2021/03/14 05:48:41;;;;;;;2.40;1.50;;;5.50;99.90;;;;;;5096898;28;20170;-57
2021/03/14 05:51:07;;;;;;;2.03;1.77;;;5.40;99.90;;;;;;5090473;28;20182;-56
2021/03/14 05:53:37;;;;;;;1.77;1.63;;;5.40;99.90;;;;;;5077128;28;20228;-58
2021/03/14 05:56:03;;;;;;;1.30;1.20;;;5.50;99.90;;;;;;5081369;28;20201;-53
2021/03/14 05:58:29;;;;;;;1.03;1.03;;;5.50;99.90;;;;;;5096732;28;20185;-59
2021/03/14 06:00:55;;;;;;;1.20;1.10;;;5.40;99.90;;;;;;5091853;28;20166;-59
2021/03/14 06:03:21;;;;;;;1.20;1.10;;;4.90;99.90;;;;;;5076660;28;20167;-54
2021/03/14 06:05:47;;;;;;;1.57;1.37;;;4.50;99.90;;;;;;5077688;28;20182;-54
2021/03/14 06:08:12;;;;;;;0.80;0.80;;;4.10;99.90;;;;;;5096957;28;20170;-55
2021/03/14 06:10:38;;;;;;;1.27;0.90;;;4.00;99.90;;;;;;5096358;28;20221;-57
2021/03/14 06:13:06;;;;;;;0.93;0.90;;;3.90;99.90;;;;;;5076357;28;20178;-57
2021/03/14 06:15:32;;;;;;;0.97;0.80;;;3.90;99.90;;;;;;5076300;28;20594;-59
2021/03/14 06:17:57;;;;;;;0.80;0.80;;;3.80;99.90;;;;;;5076589;28;20245;-59
2021/03/14 06:20:38;;;;;;;0.90;0.90;;;3.80;99.90;;;;;;5076099;28;20171;-56
2021/03/14 06:23:09;;;;;;;0.70;0.70;;;3.50;99.90;;;;;;5095517;28;20170;-55
2021/03/14 06:25:35;;;;;;;1.00;1.00;;;3.30;99.90;;;;;;5094528;28;20190;-54
2021/03/14 06:28:00;;;;;;;1.40;1.30;;;3.10;99.90;;;;;;5096823;28;20189;-57
2021/03/14 06:30:28;;;;;;;1.20;1.10;;;2.90;99.90;;;;;;5095628;28;20767;-55
2021/03/14 06:33:03;;;;;;;1.37;1.27;;;2.70;99.90;;;;;;5094174;28;20181;-59
2021/03/14 06:35:52;;;;;;;1.77;1.40;;;2.60;99.90;;;;;;5087548;28;20447;-59
2021/03/14 06:38:31;;;;;;;1.57;1.27;;;2.70;99.90;;;;;;5095185;28;20403;-54
2021/03/14 06:41:02;;;;;;;1.50;1.40;;;2.70;99.90;;;;;;5095985;28;20400;-53
2021/03/14 06:43:58;;;;;;;1.50;1.27;;;2.80;99.90;;;;;;5083365;28;20416;-55
2021/03/14 06:46:27;;;;;;;1.80;1.70;;;2.80;99.90;;;;;;5074488;28;20445;-54
2021/03/14 06:49:09;;;;;;;2.13;2.03;;;2.90;99.90;;;;;;5087895;28;20413;-56
2021/03/14 06:51:37;;;;;;;2.97;1.80;;;2.90;99.90;;;;;;5076676;28;20408;-55
2021/03/14 06:54:13;;;;;;;2.40;2.00;;;3.00;99.90;;;;;;5082226;28;20428;-59
2021/03/14 06:56:39;;;;;;;2.03;1.70;;;3.10;99.90;;;;;;5075720;28;20596;-55
2021/03/14 06:59:18;;;;;;;1.70;1.60;;;3.10;99.90;;;;;;5076188;28;20424;-56
2021/03/14 07:01:57;;;;;;;1.90;1.80;;;3.30;99.90;;;;;;5075454;28;20158;-55
2021/03/14 07:04:34;;;;;;;2.83;1.87;;;3.40;99.90;;;;;;5085548;28;20172;-53
2021/03/14 07:06:59;;;;;;;1.97;1.87;;;3.40;99.90;;;;;;5092985;28;20226;-53
2021/03/14 07:09:26;;;;;;;2.00;1.90;;;3.40;99.90;;;;;;5090351;28;20182;-60
2021/03/14 07:11:52;;;;;;;3.60;1.90;;;3.50;99.90;;;;;;5084407;28;20252;-52
2021/03/14 07:14:19;;;;;;;1.87;1.77;;;3.60;99.90;;;;;;5093500;28;20177;-51
2021/03/14 07:16:51;;;;;;;2.17;1.97;;;3.60;99.90;;;;;;5095628;28;20452;-59
2021/03/14 07:19:30;;;;;;;2.27;2.07;;;3.60;99.90;;;;;;5087527;28;20163;-52
2021/03/14 07:21:57;;;;;;;2.10;2.00;;;3.60;99.90;;;;;;5083633;28;20558;-52
2021/03/14 07:24:32;;;;;;;2.50;1.80;;;3.70;99.90;;;;;;5074841;28;20166;-53
2021/03/14 07:26:59;;;;;;;2.60;2.40;;;3.70;99.90;;;;;;5094643;28;20181;-59
2021/03/14 07:29:26;;;;;;;2.57;2.07;;;3.70;99.90;;;;;;5095057;28;20173;-56
2021/03/14 07:31:53;;;;;;;2.20;2.00;;;3.80;99.90;;;;;;5094858;28;20173;-57
2021/03/14 07:34:20;;;;;;;1.90;1.80;;;3.90;99.90;;;;;;5095099;28;20174;-54
2021/03/14 07:36:46;;;;;;;2.27;2.07;;;3.90;99.90;;;;;;5095479;28;20280;-59
2021/03/14 07:39:12;;;;;;;2.87;2.17;;;4.00;99.90;;;;;;5095644;28;20175;-56
2021/03/14 07:41:37;;;;;;;2.13;2.03;;;4.00;99.90;;;;;;5094934;28;20162;-54
2021/03/14 07:44:05;;;;;;;2.37;2.20;;;4.00;99.90;;;;;;5092906;28;20180;-60
2021/03/14 07:46:31;;;;;;;2.43;2.23;;;4.10;99.90;;;;;;5078459;28;20227;-57
2021/03/14 07:49:00;;;;;;;2.57;2.37;;;4.10;99.90;;;;;;5084183;28;20170;-56
2021/03/14 07:51:26;;;;;;;3.17;2.17;;;4.10;99.90;;;;;;5090930;28;20177;-54
2021/03/14 07:53:53;;;;;;;2.70;2.50;;;4.20;99.90;;;;;;5094530;28;20179;-55
2021/03/14 07:56:19;;;;;;;2.43;2.23;;;4.20;99.90;;;;;;5079396;28;20665;-53
2021/03/14 07:58:54;;;;;;;3.17;2.63;;;4.30;99.90;;;;;;5087974;28;20208;-57
2021/03/14 08:01:24;;;;;;;1.97;1.77;;;4.30;99.90;;;;;;5094754;28;20153;-58
2021/03/14 08:03:50;;;;;;;2.10;1.90;;;4.30;99.90;;;;;;5081230;28;20570;-58
2021/03/14 08:06:16;;;;;;;2.80;2.20;;;4.30;99.90;;;;;;5074848;28;20222;-57
2021/03/14 08:08:41;;;;;;;2.50;1.83;;;4.30;99.90;;;;;;5074266;28;20175;-57
2021/03/14 08:11:21;;;;;;;2.77;2.23;;;4.30;99.90;;;;;;5082315;28;20197;-56
2021/03/14 08:13:47;;;;;;;1.83;1.73;;;4.30;99.90;;;;;;5094795;28;20177;-53
2021/03/14 08:16:14;;;;;;;2.37;2.20;;;4.40;99.90;;;;;;5085955;28;20201;-60
2021/03/14 08:18:51;;;;;;;2.17;1.97;;;4.40;99.90;;;;;;5074487;28;20190;-58
2021/03/14 08:21:20;;;;;;;2.20;2.03;;;4.40;99.90;;;;;;5089030;28;20165;-56
2021/03/14 08:23:47;;;;;;;1.97;1.87;;;4.50;99.90;;;;;;5081805;28;20170;-55
2021/03/14 08:26:16;;;;;;;2.10;1.90;;;4.60;99.90;;;;;;5076997;28;20277;-54
2021/03/14 08:28:53;;;;;;;2.60;2.10;;;4.60;99.90;;;;;;5091746;28;20661;-53
2021/03/14 08:31:39;;;;;;;2.03;1.93;;;4.70;99.90;;;;;;5077497;28;20166;-58
2021/03/14 08:34:10;;;;;;;2.00;1.90;;;4.70;99.90;;;;;;5071683;28;20161;-53
2021/03/14 08:36:41;;;;;;;1.97;1.87;;;4.80;99.90;;;;;;5088604;28;20562;-58
2021/03/14 08:39:19;;;;;;;2.60;2.40;;;4.80;99.90;;;;;;5071204;28;20178;-57
2021/03/14 08:41:57;;;;;;;2.50;2.30;;;4.90;99.90;;;;;;5089512;28;20173;-59
2021/03/14 08:44:45;;;;;;;2.10;1.90;;;4.90;99.90;;;;;;5091897;28;20260;-56
2021/03/14 08:47:24;;;;;;;2.10;1.90;;;4.80;99.90;;;;;;5074615;28;20701;-56
2021/03/14 08:49:52;;;;;;;3.70;2.40;;;4.70;99.90;;;;;;5076732;28;20174;-57
2021/03/14 08:52:19;;;;;;;2.90;2.70;;;4.70;99.90;;;;;;5080581;28;20186;-58
2021/03/14 08:54:54;;;;;;;2.30;2.10;;;4.80;99.90;;;;;;5089718;28;20224;-53
2021/03/14 08:57:19;;;;;;;2.50;2.30;;;4.90;99.90;;;;;;5093544;28;20196;-54
2021/03/14 08:59:53;;;;;;;2.53;2.33;;;4.90;99.90;;;;;;5093553;28;20178;-54
2021/03/14 09:02:33;;;;;;;2.60;2.40;;;4.90;99.90;;;;;;5085431;28;20174;-59
2021/03/14 09:05:12;;;;;;;3.30;2.67;;;4.90;99.90;;;;;;5079186;28;20189;-55
2021/03/14 09:07:38;;;;;;;2.80;2.60;;;4.80;99.90;;;;;;5083579;28;20210;-59
2021/03/14 09:10:15;;;;;;;2.70;2.50;;;4.90;99.90;;;;;;5081839;28;20273;-58
2021/03/14 09:12:42;;;;;;;3.27;2.93;;;4.90;99.90;;;;;;5080967;28;20178;-55
2021/03/14 09:15:09;;;;;;;2.63;2.43;;;4.90;99.90;;;;;;5076447;28;20650;-57
2021/03/14 09:17:40;;;;;;;2.80;2.50;;;4.80;99.90;;;;;;5085800;28;20201;-55
2021/03/14 09:20:07;;;;;;;2.90;2.60;;;4.80;99.90;;;;;;5077730;28;20162;-54
2021/03/14 09:22:36;;;;;;;2.70;2.40;;;4.80;99.90;;;;;;5089824;28;20633;-54
2021/03/14 09:25:13;;;;;;;2.70;2.50;;;4.70;99.90;;;;;;5082037;28;20201;-59
2021/03/14 09:27:44;;;;;;;3.53;2.60;;;4.90;99.90;;;;;;5091571;28;20162;-57
2021/03/14 09:30:15;;;;;;;2.97;2.67;;;5.10;99.90;;;;;;5091228;28;20188;-55
2021/03/14 09:32:52;;;;;;;3.17;2.87;;;5.30;99.90;;;;;;5092037;28;20174;-52
2021/03/14 09:35:31;;;;;;;2.60;2.40;;;5.80;99.90;;;;;;5074602;28;20233;-55
2021/03/14 09:38:01;;;;;;;2.93;2.23;;;6.50;99.90;;;;;;5077491;28;20202;-54
2021/03/14 09:40:47;;;;;;;2.50;2.17;;;7.20;99.90;;;;;;5078089;28;20182;-59
2021/03/14 09:43:22;;;;;;;2.43;2.10;;;7.90;99.90;;;;;;5078091;28;20182;-54
2021/03/14 09:46:00;;;;;;;3.17;2.00;;;8.20;99.90;;;;;;5095200;28;20660;-56
2021/03/14 09:48:27;;;;;;;3.40;2.07;;;8.10;99.90;;;;;;5096440;28;20173;-55
2021/03/14 09:51:09;;;;;;;3.03;1.63;;;7.90;99.90;;;;;;5096727;28;20174;-58
2021/03/14 09:53:38;;;;;;;3.37;1.87;;;7.50;99.90;;;;;;5077457;28;20649;-57
2021/03/14 09:56:10;;;;;;;2.83;1.87;;;7.30;99.90;;;;;;5094262;28;20202;-52
2021/03/14 09:58:36;;;;;;;2.67;1.60;;;7.10;99.90;;;;;;5077234;28;20178;-59
2021/03/14 10:01:03;;;;;;;2.40;1.63;;;6.90;99.90;;;;;;5089077;28;20223;-53
2021/03/14 10:03:33;;;;;;;4.27;1.67;;;6.80;99.90;;;;;;5089070;28;20182;-53
2021/03/14 10:06:03;;;;;;;3.13;2.27;;;6.40;99.90;;;;;;5090895;28;20208;-56
2021/03/14 10:08:33;;;;;;;3.80;2.00;;;6.20;99.90;;;;;;5091337;28;20259;-55
2021/03/14 10:11:07;;;;;;;5.93;2.30;;;6.10;99.90;;;;;;5075687;28;20577;-57
2021/03/14 10:13:34;;;;;;;2.93;2.17;;;6.00;99.90;;;;;;5087967;28;20697;-54
2021/03/14 10:16:04;;;;;;;4.03;2.30;;;5.90;99.90;;;;;;5077256;28;20229;-59
2021/03/14 10:18:30;;;;;;;3.80;2.03;;;5.90;99.90;;;;;;5076270;28;20626;-55
2021/03/14 10:21:23;;;;;;;2.50;2.13;;;5.80;99.90;;;;;;5088053;28;20185;-55
2021/03/14 10:23:49;;;;;;;3.43;2.20;;;5.70;99.90;;;;;;5088781;28;20291;-53
2021/03/14 10:26:16;;;;;;;2.37;1.90;;;5.60;99.90;;;;;;5108582;28;20205;-54
2021/03/14 10:28:44;;;;;;;3.00;2.17;;;5.70;99.90;;;;;;5106838;28;20361;-52
2021/03/14 10:31:11;;;;;;;4.63;2.17;;;5.90;99.90;;;;;;5105742;27;20174;-57
2021/03/14 10:33:43;;;;;;;3.67;1.90;;;6.00;99.90;;;;;;5090897;28;20178;-59
2021/03/14 10:36:14;;;;;;;2.13;1.90;;;6.10;99.90;;;;;;5086983;28;20193;-57
2021/03/14 10:38:45;;;;;;;4.07;2.10;;;6.30;99.90;;;;;;5088907;28;20332;-56
2021/03/14 10:41:15;;;;;;;1.87;1.73;;;6.40;99.90;;;;;;5107697;28;20532;-55
2021/03/14 10:43:49;;;;;;;2.50;1.90;;;6.60;99.90;;;;;;5085344;28;20178;-55
2021/03/14 10:46:35;;;;;;;3.00;1.63;;;6.70;99.90;;;;;;5087355;28;20205;-52
2021/03/14 10:49:37;;;;;;;4.53;1.70;;;6.90;99.90;;;;;;5098394;28;20661;-56
2021/03/14 10:52:03;;;;;;;4.83;2.30;;;6.80;99.90;;;;;;5015428;28;20184;-53
2021/03/14 10:54:34;;;;;;;2.40;2.00;;;6.80;99.90;;;;;;5025007;28;20990;-53
2021/03/14 10:56:59;;;;;;;3.10;2.30;;;6.80;99.90;;;;;;5018154;28;20219;-55
2021/03/14 10:59:30;;;;;;;2.90;2.00;;;6.90;99.90;;;;;;5014302;28;20180;-52
2021/03/14 11:02:15;;;;;;;2.97;2.10;;;7.10;99.90;;;;;;5029221;28;20197;-57
2021/03/14 11:04:40;;;;;;;2.73;1.60;;;7.60;99.90;;;;;;5018570;28;20633;-58
2021/03/14 11:07:26;;;;;;;3.27;1.93;;;8.00;99.90;;;;;;5017886;28;20743;-59
2021/03/14 11:10:11;;;;;;;2.00;1.80;;;8.10;99.90;;;;;;5023781;28;20309;-57
2021/03/14 11:12:44;;;;;;;2.23;1.90;;;7.40;99.90;;;;;;5024013;28;20253;-56
2021/03/14 11:15:30;;;;;;;2.03;1.80;;;6.30;99.90;;;;;;5010915;28;20214;-59
2021/03/14 11:17:57;;;;;;;2.00;1.90;;;5.50;99.90;;;;;;5020801;28;21161;-55
2021/03/14 11:20:26;;;;;;;2.43;1.83;;;5.20;99.90;;;;;;5000723;28;20710;-56
2021/03/14 11:22:54;;;;;;;2.17;1.70;;;5.00;99.90;;;;;;5021041;28;20191;-58
2021/03/14 11:25:23;;;;;;;2.30;1.93;;;5.00;99.90;;;;;;5021932;28;20626;-59
2021/03/14 11:27:51;;;;;;;2.50;2.00;;;5.20;99.90;;;;;;5051541;28;20558;-59
2021/03/14 11:30:20;;;;;;;3.20;1.50;;;5.70;99.90;;;;;;5083689;28;20716;-60
2021/03/14 11:32:46;;;;;;;1.30;1.20;;;6.40;99.90;;;;;;5088782;28;20170;-59
2021/03/14 11:35:12;;;;;;;1.27;1.17;;;7.10;99.90;;;;;;5094601;28;20186;-56
2021/03/14 11:37:38;;;;;;;3.00;2.13;;;7.80;99.90;;;;;;5094356;28;20250;-57
2021/03/14 11:40:16;;;;;;;3.93;2.37;;;8.10;99.90;;;;;;5077792;28;20634;-53
2021/03/14 11:42:42;;;;;;;7.60;6.27;;;8.50;99.90;;;;;;5080323;28;20528;-51
2021/03/14 11:45:10;;;;;;;1.70;1.60;;;8.40;99.90;;;;;;5087663;28;20772;-55
2021/03/14 11:47:36;;;;;;;2.10;2.00;;;8.10;99.90;;;;;;5085761;28;20178;-59
2021/03/14 11:50:05;;;;;;;2.37;1.83;;;7.70;99.90;;;;;;5089802;28;20549;-61
2021/03/14 11:52:30;;;;;;;3.40;2.00;;;7.20;99.90;;;;;;5061274;28;20194;-56
2021/03/14 11:54:56;;;;;;;1.90;1.80;;;6.80;99.90;;;;;;5081617;28;20205;-56
2021/03/14 11:57:22;;;;;;;1.83;1.73;;;6.60;99.90;;;;;;5080505;28;20201;-52
2021/03/14 11:59:48;;;;;;;2.60;2.40;;;6.30;99.90;;;;;;5085072;28;20222;-54
2021/03/14 12:02:13;;;;;;;2.10;2.00;;;6.40;99.90;;;;;;5078010;28;20174;-54
2021/03/14 12:04:39;;;;;;;2.03;1.93;;;6.80;99.90;;;;;;5082052;28;20186;-61
2021/03/14 12:07:05;;;;;;;3.00;2.70;;;7.40;99.90;;;;;;5077463;28;20171;-55
2021/03/14 12:09:31;;;;;;;2.60;2.30;;;7.90;99.90;;;;;;5087323;28;20193;-57
2021/03/14 12:11:58;;;;;;;2.30;2.10;;;7.60;99.90;;;;;;5097042;28;20194;-57
2021/03/14 12:14:24;;;;;;;2.40;2.20;;;7.10;99.90;;;;;;5090685;28;20170;-55
2021/03/14 12:16:50;;;;;;;2.30;2.20;;;7.10;99.90;;;;;;5094988;28;20230;-53
2021/03/14 12:19:15;;;;;;;2.63;2.43;;;7.20;99.90;;;;;;5078208;28;20174;-53
2021/03/14 12:21:41;;;;;;;2.40;2.30;;;7.50;99.90;;;;;;5093502;28;20664;-54
2021/03/14 12:24:06;;;;;;;2.37;2.13;;;7.80;99.90;;;;;;5086375;28;20182;-53
2021/03/14 12:26:32;;;;;;;2.63;2.20;;;7.90;99.90;;;;;;5081027;28;20187;-56
2021/03/14 12:28:58;;;;;;;2.67;2.30;;;7.70;99.90;;;;;;5075577;28;20438;-56
2021/03/14 12:31:23;;;;;;;3.00;2.40;;;7.10;99.90;;;;;;5078532;28;20174;-54
2021/03/14 12:33:49;;;;;;;2.60;2.40;;;6.70;99.90;;;;;;5075057;28;20183;-58
2021/03/14 12:36:15;;;;;;;2.83;2.63;;;6.80;99.90;;;;;;5082633;28;20547;-60
2021/03/14 12:38:42;;;;;;;2.03;1.93;;;7.00;99.90;;;;;;5088427;28;20499;-61
2021/03/14 12:41:08;;;;;;;2.97;2.30;;;7.10;99.90;;;;;;5093653;28;20182;-55
2021/03/14 12:43:33;;;;;;;3.13;2.37;;;7.20;99.90;;;;;;5079728;28;20281;-56
2021/03/14 12:45:59;;;;;;;1.73;1.10;;;7.10;99.90;;;;;;5081830;28;20225;-53
2021/03/14 12:48:26;;;;;;;1.40;1.30;;;6.20;99.90;;;;;;5073357;28;20623;-57
2021/03/14 12:50:52;;;;;;;1.47;1.20;;;5.50;99.90;;;;;;5082093;28;20280;-58
2021/03/14 12:53:17;;;;;;;1.97;1.43;;;5.00;99.90;;;;;;5092877;28;20597;-56
2021/03/14 12:55:43;;;;;;;1.77;1.63;;;4.70;99.90;;;;;;5092519;28;20579;-59
2021/03/14 12:58:08;;;;;;;3.90;1.87;;;4.60;99.90;;;;;;5093394;28;20284;-56
2021/03/14 13:00:34;;;;;;;1.67;1.57;;;4.60;99.90;;;;;;5084053;28;20167;-54
2021/03/14 13:03:00;;;;;;;1.60;1.50;;;4.70;99.90;;;;;;5074741;28;20178;-56
2021/03/14 13:05:26;;;;;;;1.60;1.50;;;4.90;99.90;;;;;;5087197;28;20202;-55
2021/03/14 13:07:53;;;;;;;1.50;1.40;;;5.10;99.90;;;;;;5082168;28;20186;-59